Аэропорт: Угольный. Анадырь

ICAO: UHMA

METAR:
2019/01/21 22:30
UHMA 212230Z 36004G07MPS 9999 -SN OVC018 M17/M20 Q1019 R88/491040 NOSIG RMK END R01/35007MPS QFE761/1014
METAR:
2019/01/21 21:21
TAF UHMA 211954Z 2121/2221 34006MPS 9999 BKN025 
      TEMPO 2121/2218 04003MPS 2000 -SN BR SCT005 BKN020 
      TEMPO 2218/2221 35008G13MPS 4000 -SN DRSN BKN020